Date,TemperatureHighF,TemperatureAvgF,TemperatureLowF,DewpointHighF,DewpointAvgF,DewpointLowF,HumidityHigh,HumidityAvg,HumidityLow,PressureMaxIn,PressureMinIn,WindSpeedMaxMPH,WindSpeedAvgMPH,GustSpeedMaxMPH,PrecipitationSumIn
2013-2-1,49,45,42,47,44,42,100,97,88,30.41,30.34,11,2,11,0.00
2013-2-2,47,41,32,44,40,32,100,96,88,30.38,30.26,9,1,9,0.00
2013-2-3,46,41,34,45,41,34,100,99,95,30.33,30.23,4,0,4,0.00
2013-2-4,52,45,38,47,43,38,100,94,76,30.23,29.92,7,0,7,0.00
2013-2-5,49,44,38,48,43,38,100,98,90,29.98,29.86,11,2,11,0.35
2013-2-6,48,44,41,45,43,40,100,96,87,30.07,29.79,18,2,18,0.17
2013-2-7,50,40,29,42,37,29,100,90,57,30.20,29.83,7,1,7,0.07
2013-2-8,46,36,27,41,34,27,100,93,70,30.33,30.20,9,1,9,0.01
2013-2-9,52,39,29,42,36,29,100,89,64,30.35,30.26,5,0,5,0.00
2013-2-10,45,42,40,41,40,38,98,91,77,30.39,30.34,8,1,8,0.00
2013-2-11,46,43,38,45,42,38,100,97,88,30.37,30.34,5,0,5,0.00
2013-2-12,51,46,43,49,46,42,100,97,87,30.43,30.36,14,1,14,0.04
2013-2-13,48,44,33,46,42,33,100,95,85,30.53,30.36,13,1,13,0.02
2013-2-14,47,42,33,47,42,32,100,100,98,30.57,30.52,6,0,6,0.01
2013-2-15,56,46,35,48,44,34,100,93,71,30.56,30.20,12,2,12,0.00
2013-2-16,53,44,34,46,41,34,100,89,71,30.23,30.19,19,3,19,0.01
2013-2-17,48,40,33,43,38,32,98,90,77,30.28,30.12,10,1,10,0.01
2013-2-18,46,39,32,42,36,31,100,92,74,30.11,29.76,8,1,8,0.03
2013-2-19,54,42,35,43,39,34,99,90,57,30.02,29.74,13,1,13,0.03
2013-2-20,45,38,31,42,37,30,100,97,83,30.08,30.00,6,0,6,0.16
2013-2-21,42,40,38,42,40,38,100,99,96,30.11,30.03,11,2,11,0.27
2013-2-22,47,40,36,47,40,35,100,98,88,30.10,29.76,25,3,25,0.44
2013-2-23,50,42,37,41,37,34,100,85,63,30.40,29.98,24,3,24,0.63
2013-2-24,48,43,38,41,38,36,97,84,73,30.41,29.96,14,2,14,0.01
2013-2-25,51,42,37,42,39,34,99,88,62,30.33,29.93,21,3,21,0.41
2013-2-26,51,41,35,42,37,34,98,87,66,30.37,30.21,8,1,8,0.03
2013-2-27,49,43,37,47,42,36,100,97,88,30.31,30.21,8,0,8,0.11
2013-2-28,52,48,44,52,48,43,100,100,100,30.35,30.20,8,1,8,1.04